createdAt,value
2022-10-28T00:00:58.024Z,14.16
2022-10-28T00:03:26.580Z,14.16
2022-10-28T00:05:54.846Z,14.21
2022-10-28T00:08:22.769Z,14.23
2022-10-28T00:10:50.688Z,14.32
2022-10-28T00:13:20.072Z,14.26
2022-10-28T00:15:47.766Z,14.26
2022-10-28T00:18:15.521Z,14.17
2022-10-28T00:20:43.477Z,14.22
2022-10-28T00:23:11.175Z,14.26
2022-10-28T00:25:39.031Z,14.35
2022-10-28T00:28:06.743Z,14.31
2022-10-28T00:30:36.011Z,14.33
2022-10-28T00:33:03.676Z,14.32
2022-10-28T00:35:31.324Z,14.31
2022-10-28T00:37:59.107Z,14.33
2022-10-28T00:40:27.175Z,14.27
2022-10-28T00:42:55.176Z,14.30
2022-10-28T00:45:23.527Z,14.30
2022-10-28T00:47:57.463Z,14.27
2022-10-28T00:50:38.588Z,14.21
2022-10-28T00:53:09.918Z,14.00
2022-10-28T00:55:38.366Z,13.93
2022-10-28T00:58:07.641Z,13.87
2022-10-28T01:00:35.921Z,13.84
2022-10-28T01:03:05.630Z,13.88
2022-10-28T01:05:38.440Z,13.90
2022-10-28T01:08:07.538Z,13.93
2022-10-28T01:11:03.111Z,13.89
2022-10-28T01:13:41.169Z,14.02
2022-10-28T01:16:20.896Z,14.05
2022-10-28T01:18:57.258Z,14.05
2022-10-28T01:21:58.141Z,14.03
2022-10-28T01:24:39.066Z,14.02
2022-10-28T01:27:36.943Z,14.03
2022-10-28T01:30:11.373Z,14.10
2022-10-28T01:32:54.991Z,14.07
2022-10-28T01:38:17.227Z,14.16
2022-10-28T01:40:53.061Z,14.15
2022-10-28T01:43:28.195Z,14.11
2022-10-28T01:46:00.389Z,14.06
2022-10-28T01:48:35.249Z,14.03
2022-10-28T01:51:07.586Z,13.99
2022-10-28T01:53:41.675Z,14.03
2022-10-28T01:56:14.878Z,14.06
2022-10-28T01:58:44.721Z,14.08
2022-10-28T02:01:13.199Z,14.16
2022-10-28T02:03:42.463Z,14.23
2022-10-28T02:06:17.132Z,14.26
2022-10-28T02:09:01.991Z,14.25
2022-10-28T02:11:50.431Z,14.22
2022-10-28T02:14:39.687Z,14.19
2022-10-28T02:17:19.590Z,14.15
2022-10-28T02:19:55.404Z,14.13
2022-10-28T02:22:29.518Z,14.17
2022-10-28T02:25:05.584Z,14.19
2022-10-28T02:27:39.603Z,14.16
2022-10-28T02:30:12.419Z,14.16
2022-10-28T02:32:45.478Z,14.11
2022-10-28T02:35:18.298Z,14.02
2022-10-28T02:37:49.779Z,13.96
2022-10-28T02:40:22.370Z,13.90
2022-10-28T02:42:53.537Z,13.88
2022-10-28T02:45:25.255Z,13.89
2022-10-28T02:47:58.826Z,13.85
2022-10-28T02:50:34.345Z,13.81
2022-10-28T02:53:05.193Z,13.80
2022-10-28T02:55:38.549Z,13.79
2022-10-28T02:58:06.836Z,13.80
2022-10-28T03:00:34.482Z,13.80
2022-10-28T03:03:02.124Z,13.79
2022-10-28T03:05:31.356Z,13.81
2022-10-28T03:07:59.177Z,13.83
2022-10-28T03:10:27.669Z,13.81
2022-10-28T03:12:55.347Z,13.84
2022-10-28T03:15:22.999Z,13.87
2022-10-28T03:17:51.122Z,13.89
2022-10-28T03:20:19.191Z,13.88
2022-10-28T03:22:49.645Z,13.90
2022-10-28T03:25:17.755Z,13.93
2022-10-28T03:27:45.589Z,14.03
2022-10-28T03:30:14.432Z,13.97
2022-10-28T03:32:43.675Z,13.99
2022-10-28T03:35:12.095Z,14.02
2022-10-28T03:37:42.561Z,13.98
2022-10-28T03:40:13.482Z,13.94
2022-10-28T03:42:42.247Z,13.98
2022-10-28T03:45:11.652Z,14.06
2022-10-28T03:47:43.612Z,14.04
2022-10-28T03:50:11.285Z,14.04
2022-10-28T03:52:39.015Z,14.04
2022-10-28T03:55:07.565Z,14.04
2022-10-28T03:57:37.105Z,14.07
2022-10-28T04:00:06.158Z,13.98
2022-10-28T04:02:39.484Z,13.92
2022-10-28T04:05:07.743Z,13.89
2022-10-28T04:07:36.284Z,13.86
2022-10-28T04:10:03.998Z,13.82
2022-10-28T04:12:31.696Z,13.77
2022-10-28T04:15:00.882Z,13.77
2022-10-28T04:17:28.587Z,13.80
2022-10-28T04:19:56.235Z,13.73
2022-10-28T04:22:23.882Z,13.71
2022-10-28T04:24:53.005Z,13.68
2022-10-28T04:27:20.738Z,13.67
2022-10-28T04:29:48.402Z,13.73
2022-10-28T04:32:17.514Z,13.69
2022-10-28T04:34:45.392Z,13.81
2022-10-28T04:37:15.888Z,13.82
2022-10-28T04:39:45.916Z,13.87
2022-10-28T04:42:13.594Z,13.96
2022-10-28T04:44:41.280Z,14.02
2022-10-28T04:47:08.990Z,14.03
2022-10-28T04:49:38.996Z,13.98
2022-10-28T04:52:08.790Z,14.02
2022-10-28T04:54:38.743Z,14.05
2022-10-28T04:57:06.800Z,14.10
2022-10-28T04:59:35.056Z,14.07
2022-10-28T05:02:02.879Z,14.04
2022-10-28T05:04:30.586Z,13.97
2022-10-28T05:06:59.614Z,13.98
2022-10-28T05:09:27.464Z,13.94
2022-10-28T05:11:55.632Z,13.86
2022-10-28T05:14:23.277Z,13.71
2022-10-28T05:16:50.881Z,13.58
2022-10-28T05:19:19.104Z,13.52
2022-10-28T05:21:46.711Z,13.51
2022-10-28T05:24:16.022Z,13.48
2022-10-28T05:26:43.906Z,13.44
2022-10-28T05:29:11.566Z,13.52
2022-10-28T05:31:39.211Z,13.60
2022-10-28T05:34:06.918Z,13.57
2022-10-28T05:36:34.548Z,13.55
2022-10-28T05:39:02.387Z,13.54
2022-10-28T05:41:35.172Z,13.51
2022-10-28T05:44:05.595Z,13.50
2022-10-28T05:46:33.287Z,13.50
2022-10-28T05:49:01.151Z,13.56
2022-10-28T05:51:29.064Z,13.55
2022-10-28T05:53:57.049Z,13.55
2022-10-28T05:56:24.797Z,13.57
2022-10-28T05:58:53.781Z,13.62
2022-10-28T06:01:21.498Z,13.66
2022-10-28T06:03:49.245Z,13.74
2022-10-28T06:06:17.113Z,13.80
2022-10-28T06:08:44.987Z,13.79
2022-10-28T06:11:11.119Z,13.80
2022-10-28T06:13:39.157Z,13.83
2022-10-28T06:16:08.425Z,13.85
2022-10-28T06:18:36.312Z,13.81
2022-10-28T06:21:04.815Z,13.77
2022-10-28T06:23:32.463Z,13.77
2022-10-28T06:26:03.376Z,13.79
2022-10-28T06:28:31.639Z,13.86
2022-10-28T06:31:03.026Z,13.90
2022-10-28T06:33:33.115Z,13.92
2022-10-28T06:36:01.244Z,13.94
2022-10-28T06:38:29.547Z,13.96
2022-10-28T06:40:58.287Z,13.95
2022-10-28T06:43:26.074Z,13.97
2022-10-28T06:45:56.168Z,14.00
2022-10-28T06:48:25.728Z,14.21
2022-10-28T06:50:57.984Z,14.20
2022-10-28T06:53:26.172Z,14.20
2022-10-28T06:55:55.064Z,14.21
2022-10-28T06:58:23.217Z,14.22
2022-10-28T07:00:51.207Z,14.25
2022-10-28T07:03:19.881Z,14.30
2022-10-28T07:05:49.152Z,14.38
2022-10-28T07:08:18.765Z,14.38
2022-10-28T07:10:54.477Z,14.37
2022-10-28T07:13:23.517Z,14.36
2022-10-28T07:15:54.939Z,14.34
2022-10-28T07:18:25.410Z,14.35
2022-10-28T07:20:55.640Z,14.34
2022-10-28T07:23:27.247Z,14.36
2022-10-28T07:25:56.900Z,14.41
2022-10-28T07:28:26.686Z,14.44
2022-10-28T07:30:54.440Z,14.50
2022-10-28T07:33:22.094Z,14.52
2022-10-28T07:35:49.888Z,14.60
2022-10-28T07:38:17.562Z,14.59
2022-10-28T07:40:46.885Z,14.62
2022-10-28T07:43:14.646Z,14.66
2022-10-28T07:45:43.584Z,14.72
2022-10-28T07:48:11.381Z,14.77
2022-10-28T07:50:41.079Z,14.80
2022-10-28T07:53:08.945Z,14.86
2022-10-28T07:55:36.957Z,14.90
2022-10-28T07:58:06.245Z,14.88
2022-10-28T08:00:34.181Z,14.90
2022-10-28T08:03:04.624Z,14.94
2022-10-28T08:05:32.422Z,14.91
2022-10-28T08:08:00.207Z,14.94
2022-10-28T08:10:28.525Z,14.95
2022-10-28T08:12:57.196Z,14.99
2022-10-28T08:15:26.534Z,15.04
2022-10-28T08:17:55.195Z,15.07
2022-10-28T08:20:24.162Z,15.15
2022-10-28T08:22:51.975Z,15.22
2022-10-28T08:25:19.958Z,15.28
2022-10-28T08:27:47.739Z,15.33
2022-10-28T08:30:15.594Z,15.35
2022-10-28T08:32:44.871Z,15.41
2022-10-28T08:35:12.505Z,15.46
2022-10-28T08:37:40.702Z,15.53
2022-10-28T08:40:12.841Z,15.55
2022-10-28T08:42:46.143Z,15.61
2022-10-28T08:45:32.592Z,15.62
2022-10-28T08:48:12.302Z,15.62
2022-10-28T08:50:48.456Z,15.70
2022-10-28T08:53:20.435Z,15.75
2022-10-28T08:55:51.199Z,15.83
2022-10-28T08:58:23.113Z,15.86
2022-10-28T09:00:54.787Z,15.87
2022-10-28T09:03:26.317Z,15.87
2022-10-28T09:06:00.454Z,15.86
2022-10-28T09:08:30.240Z,15.84
2022-10-28T09:11:12.197Z,15.80
2022-10-28T09:13:57.222Z,15.80
2022-10-28T09:16:36.995Z,15.77
2022-10-28T09:19:15.718Z,15.69
2022-10-28T09:21:54.020Z,15.64
2022-10-28T09:24:26.773Z,15.74
2022-10-28T09:27:02.912Z,15.89
2022-10-28T09:29:44.491Z,16.05
2022-10-28T09:32:23.640Z,16.15
2022-10-28T09:34:57.455Z,16.27
2022-10-28T09:37:29.160Z,16.48
2022-10-28T09:40:01.042Z,16.48
2022-10-28T09:42:32.094Z,16.42
2022-10-28T09:45:03.793Z,16.54
2022-10-28T09:47:36.898Z,16.58
2022-10-28T09:50:15.027Z,16.59
2022-10-28T09:52:55.702Z,16.56
2022-10-28T09:55:24.540Z,16.52
2022-10-28T09:57:52.525Z,16.58
2022-10-28T10:00:20.739Z,16.82
2022-10-28T10:02:50.873Z,16.91
2022-10-28T10:05:20.666Z,17.16
2022-10-28T10:07:53.407Z,17.23
2022-10-28T10:10:25.637Z,17.33
2022-10-28T10:12:56.942Z,17.60
2022-10-28T10:15:32.340Z,17.73
2022-10-28T10:18:02.912Z,17.81
2022-10-28T10:20:47.956Z,17.85
2022-10-28T10:23:24.510Z,17.93
2022-10-28T10:25:58.310Z,17.99
2022-10-28T10:28:27.091Z,18.13
2022-10-28T10:30:57.252Z,18.15
2022-10-28T10:33:28.279Z,18.04
2022-10-28T10:36:01.670Z,18.11
2022-10-28T10:38:30.631Z,18.17
2022-10-28T10:40:58.936Z,18.32
2022-10-28T10:43:32.420Z,18.39
2022-10-28T10:46:04.597Z,18.51
2022-10-28T10:48:36.209Z,18.50
2022-10-28T10:51:13.352Z,18.56
2022-10-28T10:53:41.476Z,18.64
2022-10-28T10:56:13.025Z,18.78
2022-10-28T10:58:48.201Z,18.84
2022-10-28T11:01:20.443Z,18.97
2022-10-28T11:03:51.365Z,19.02
2022-10-28T11:06:25.008Z,18.89
2022-10-28T11:08:58.299Z,19.04
2022-10-28T11:11:34.153Z,19.13
2022-10-28T11:14:08.699Z,19.15
2022-10-28T11:16:49.557Z,19.31
2022-10-28T11:19:22.742Z,19.22
2022-10-28T11:22:05.901Z,19.35
2022-10-28T11:24:44.724Z,19.43
2022-10-28T11:27:23.848Z,19.56
2022-10-28T11:29:51.789Z,19.81
2022-10-28T11:32:33.709Z,19.96
2022-10-28T11:35:23.897Z,19.89
2022-10-28T11:38:03.417Z,19.72
2022-10-28T11:40:41.421Z,19.69
2022-10-28T11:43:26.076Z,19.79
2022-10-28T11:46:04.488Z,20.01
2022-10-28T11:48:47.340Z,20.24
2022-10-28T11:51:28.365Z,20.41
2022-10-28T11:54:14.073Z,20.56
2022-10-28T11:56:46.686Z,20.53
2022-10-28T11:59:30.457Z,20.38
2022-10-28T12:02:10.285Z,20.74
2022-10-28T12:04:50.429Z,21.08
2022-10-28T12:07:56.264Z,21.18
2022-10-28T12:10:53.967Z,21.08
2022-10-28T12:13:31.225Z,21.20
2022-10-28T12:16:05.433Z,21.18
2022-10-28T12:18:36.825Z,21.23
2022-10-28T12:21:12.280Z,21.28
2022-10-28T12:23:41.270Z,21.29
2022-10-28T12:26:14.714Z,21.25
2022-10-28T12:28:46.227Z,21.07
2022-10-28T12:31:21.898Z,21.01
2022-10-28T12:33:53.365Z,20.92
2022-10-28T12:36:31.894Z,20.73
2022-10-28T12:42:04.582Z,20.75
2022-10-28T12:44:33.977Z,20.84
2022-10-28T12:47:13.606Z,20.86
2022-10-28T12:49:50.780Z,20.91
2022-10-28T12:52:28.041Z,20.89
2022-10-28T12:58:05.738Z,20.93
2022-10-28T13:01:01.181Z,21.14
2022-10-28T13:03:30.064Z,21.05
2022-10-28T13:06:13.053Z,20.98
2022-10-28T13:09:00.135Z,21.06
2022-10-28T13:11:57.681Z,21.07
2022-10-28T13:14:45.323Z,21.00
2022-10-28T13:17:31.021Z,21.08
2022-10-28T13:20:15.501Z,21.01
2022-10-28T13:22:54.668Z,20.90
2022-10-28T13:25:46.718Z,20.81
2022-10-28T13:28:16.323Z,20.88
2022-10-28T13:30:56.112Z,20.95
2022-10-28T13:33:26.634Z,20.95
2022-10-28T13:35:55.695Z,20.91
2022-10-28T13:38:26.671Z,21.07
2022-10-28T13:41:27.456Z,21.31
2022-10-28T13:44:15.055Z,21.33
2022-10-28T13:47:19.061Z,21.40
2022-10-28T13:50:14.435Z,21.36
2022-10-28T13:52:43.747Z,21.38
2022-10-28T13:55:23.401Z,21.31
2022-10-28T13:57:53.296Z,21.34
2022-10-28T14:00:42.879Z,21.33
2022-10-28T14:03:20.283Z,21.35
2022-10-28T14:05:54.231Z,21.47
2022-10-28T14:08:27.907Z,21.33
2022-10-28T14:11:05.766Z,21.26
2022-10-28T14:13:38.053Z,21.21
2022-10-28T14:16:23.868Z,21.07
2022-10-28T14:19:03.503Z,21.08
2022-10-28T14:21:54.373Z,21.07
2022-10-28T14:24:33.914Z,20.92
2022-10-28T14:27:30.683Z,20.86
2022-10-28T14:30:20.124Z,20.82
2022-10-28T14:33:22.945Z,20.88
2022-10-28T14:36:08.153Z,20.95
2022-10-28T14:39:13.278Z,21.07
2022-10-28T14:41:57.171Z,21.02
2022-10-28T14:44:42.383Z,20.95
2022-10-28T14:47:29.410Z,20.86
2022-10-28T14:50:01.692Z,20.78
2022-10-28T14:52:33.221Z,20.72
2022-10-28T14:55:03.888Z,20.61
2022-10-28T14:57:34.430Z,20.53
2022-10-28T15:00:05.116Z,20.46
2022-10-28T15:02:35.072Z,20.43
2022-10-28T15:05:11.561Z,20.34
2022-10-28T15:07:42.134Z,20.26
2022-10-28T15:10:19.305Z,20.16
2022-10-28T15:12:49.903Z,20.07
2022-10-28T15:15:19.303Z,19.91
2022-10-28T15:17:47.510Z,19.81
2022-10-28T15:20:22.857Z,19.77
2022-10-28T15:22:52.762Z,19.67
2022-10-28T15:25:22.063Z,19.57
2022-10-28T15:27:53.091Z,19.53
2022-10-28T15:30:23.590Z,19.48
2022-10-28T15:32:53.419Z,19.47
2022-10-28T15:35:40.510Z,19.44
2022-10-28T15:38:33.758Z,19.45
2022-10-28T15:41:01.617Z,19.40
2022-10-28T15:43:31.847Z,19.39
2022-10-28T15:46:11.916Z,19.38
2022-10-28T15:48:39.762Z,19.38
2022-10-28T15:51:15.921Z,19.37
2022-10-28T15:53:46.298Z,19.35
2022-10-28T15:56:20.381Z,19.28
2022-10-28T15:58:50.779Z,19.23
2022-10-28T16:01:38.947Z,19.16
2022-10-28T16:04:08.174Z,19.07
2022-10-28T16:06:38.125Z,19.03
2022-10-28T16:09:16.865Z,18.94
2022-10-28T16:11:47.662Z,18.90
2022-10-28T16:14:32.998Z,18.85
2022-10-28T16:17:13.602Z,18.76
2022-10-28T16:19:45.401Z,18.55
2022-10-28T16:22:15.024Z,18.38
2022-10-28T16:24:43.995Z,18.29
2022-10-28T16:27:19.673Z,18.20
2022-10-28T16:29:47.797Z,18.08
2022-10-28T16:32:17.329Z,18.00
2022-10-28T16:34:45.209Z,17.98
2022-10-28T16:37:22.097Z,18.02
2022-10-28T16:39:51.187Z,18.01
2022-10-28T16:42:20.129Z,18.06
2022-10-28T16:44:48.022Z,18.12
2022-10-28T16:47:18.223Z,18.11
2022-10-28T16:49:52.434Z,18.09
2022-10-28T16:52:26.471Z,17.91
2022-10-28T16:54:55.916Z,17.80
2022-10-28T16:59:57.305Z,17.67
2022-10-28T17:02:28.441Z,17.69
2022-10-28T17:04:56.912Z,17.65
2022-10-28T17:07:24.850Z,17.63
2022-10-28T17:09:53.068Z,17.55
2022-10-28T17:12:24.632Z,17.57
2022-10-28T17:14:52.873Z,17.58
2022-10-28T17:17:20.926Z,17.55
2022-10-28T17:19:48.635Z,17.57
2022-10-28T17:22:16.355Z,17.56
2022-10-28T17:24:46.000Z,17.54
2022-10-28T17:27:13.806Z,17.58
2022-10-28T17:29:43.489Z,17.68
2022-10-28T17:32:11.499Z,17.60
2022-10-28T17:34:39.167Z,17.76
2022-10-28T17:37:07.823Z,17.89
2022-10-28T17:39:35.657Z,17.85
2022-10-28T17:42:03.408Z,17.77
2022-10-28T17:44:31.085Z,17.70
2022-10-28T17:47:00.743Z,17.63
2022-10-28T17:49:28.473Z,17.53
2022-10-28T17:51:56.148Z,17.47
2022-10-28T17:56:59.835Z,17.44
2022-10-28T17:59:27.627Z,17.39
2022-10-28T18:01:55.510Z,17.39
2022-10-28T18:04:26.669Z,17.31
2022-10-28T18:06:55.453Z,17.25
2022-10-28T18:09:23.573Z,17.18
2022-10-28T18:11:52.009Z,17.11
2022-10-28T18:14:21.039Z,17.11
2022-10-28T18:16:50.120Z,17.08
2022-10-28T18:19:18.691Z,17.06
2022-10-28T18:21:48.397Z,17.05
2022-10-28T18:24:17.083Z,17.06
2022-10-28T18:26:45.437Z,17.04
2022-10-28T18:29:13.507Z,17.09
2022-10-28T18:31:43.825Z,17.10
2022-10-28T18:34:12.046Z,17.16
2022-10-28T18:36:39.754Z,17.23
2022-10-28T18:39:09.710Z,17.26
2022-10-28T18:41:41.829Z,17.28
2022-10-28T18:44:17.124Z,17.24
2022-10-28T18:46:45.958Z,17.13
2022-10-28T18:49:14.854Z,17.08
2022-10-28T18:51:42.601Z,17.16
2022-10-28T18:54:12.017Z,17.07
2022-10-28T18:56:40.866Z,17.03
2022-10-28T18:59:10.296Z,17.06
2022-10-28T19:01:38.493Z,17.05
2022-10-28T19:04:06.214Z,17.09
2022-10-28T19:06:34.774Z,17.05
2022-10-28T19:09:04.585Z,17.09
2022-10-28T19:11:35.299Z,17.08
2022-10-28T19:14:04.936Z,16.98
2022-10-28T19:16:34.104Z,16.98
2022-10-28T19:19:03.226Z,16.96
2022-10-28T19:21:31.172Z,16.93
2022-10-28T19:23:59.299Z,16.94
2022-10-28T19:26:27.695Z,16.88
2022-10-28T19:28:56.915Z,16.91
2022-10-28T19:31:26.217Z,16.89
2022-10-28T19:33:55.298Z,16.82
2022-10-28T19:36:24.926Z,16.85
2022-10-28T19:38:54.420Z,16.84
2022-10-28T19:41:25.030Z,16.85
2022-10-28T19:43:59.582Z,16.82
2022-10-28T19:46:28.541Z,16.79
2022-10-28T19:48:58.280Z,16.78
2022-10-28T19:51:28.460Z,16.78
2022-10-28T19:53:57.477Z,16.77
2022-10-28T19:56:26.329Z,16.79
2022-10-28T19:58:55.344Z,16.77
2022-10-28T20:01:26.561Z,16.74
2022-10-28T20:03:55.231Z,16.69
2022-10-28T20:06:25.070Z,16.64
2022-10-28T20:08:53.191Z,16.64
2022-10-28T20:11:26.073Z,16.61
2022-10-28T20:13:55.903Z,16.53
2022-10-28T20:16:25.863Z,16.44
2022-10-28T20:18:54.819Z,16.31
2022-10-28T20:21:23.945Z,16.31
2022-10-28T20:23:54.720Z,16.31
2022-10-28T20:26:24.061Z,16.24
2022-10-28T20:28:52.525Z,16.17
2022-10-28T20:31:22.272Z,16.19
2022-10-28T20:33:53.626Z,16.15
2022-10-28T20:36:23.352Z,16.13
2022-10-28T20:38:54.926Z,16.12
2022-10-28T20:41:23.446Z,16.14
2022-10-28T20:43:52.158Z,16.12
2022-10-28T20:46:21.415Z,16.15
2022-10-28T20:48:49.680Z,16.13
2022-10-28T20:51:18.852Z,16.11
2022-10-28T20:53:47.070Z,16.08
2022-10-28T20:56:17.257Z,16.05
2022-10-28T20:58:44.975Z,16.06
2022-10-28T21:01:15.752Z,16.04
2022-10-28T21:03:43.888Z,16.05
2022-10-28T21:08:41.840Z,16.04
2022-10-28T21:11:12.744Z,16.02
2022-10-28T21:13:41.157Z,15.98
2022-10-28T21:16:11.067Z,15.99
2022-10-28T21:18:39.985Z,15.96
2022-10-28T21:21:08.650Z,15.95
2022-10-28T21:23:36.462Z,16.04
2022-10-28T21:26:07.337Z,16.04
2022-10-28T21:28:35.728Z,16.01
2022-10-28T21:31:05.213Z,15.96
2022-10-28T21:33:34.626Z,15.89
2022-10-28T21:36:04.677Z,15.91
2022-10-28T21:38:32.740Z,16.01
2022-10-28T21:41:02.338Z,16.02
2022-10-28T21:43:33.708Z,16.03
2022-10-28T21:46:01.744Z,15.98
2022-10-28T21:48:30.310Z,16.00
2022-10-28T21:51:00.382Z,15.95
2022-10-28T21:53:32.157Z,15.91
2022-10-28T21:56:03.847Z,15.91
2022-10-28T21:58:33.276Z,15.89
2022-10-28T22:01:06.018Z,15.92
2022-10-28T22:03:34.052Z,15.89
2022-10-28T22:06:01.740Z,15.91
2022-10-28T22:08:29.759Z,15.92
2022-10-28T22:11:01.934Z,15.87
2022-10-28T22:13:30.232Z,15.91
2022-10-28T22:16:01.786Z,15.91
2022-10-28T22:18:30.305Z,15.97
2022-10-28T22:20:58.362Z,15.94
2022-10-28T22:23:26.104Z,15.97
2022-10-28T22:25:53.748Z,15.89
2022-10-28T22:28:21.646Z,15.85
2022-10-28T22:30:49.262Z,15.74
2022-10-28T22:33:18.764Z,15.75
2022-10-28T22:35:57.275Z,15.79
2022-10-28T22:38:25.531Z,15.70
2022-10-28T22:41:02.640Z,15.64
2022-10-28T22:43:30.552Z,15.65
2022-10-28T22:45:58.416Z,15.66
2022-10-28T22:48:28.103Z,15.69
2022-10-28T22:50:56.038Z,15.67
2022-10-28T22:53:24.287Z,15.68
2022-10-28T22:55:53.420Z,15.79
2022-10-28T22:58:21.976Z,15.83
2022-10-28T23:00:49.634Z,15.83
2022-10-28T23:03:17.494Z,15.79
2022-10-28T23:05:46.581Z,16.00
2022-10-28T23:08:16.865Z,16.27
2022-10-28T23:10:44.546Z,16.43
2022-10-28T23:13:13.622Z,16.61
2022-10-28T23:15:41.452Z,16.56
2022-10-28T23:18:09.077Z,16.52
2022-10-28T23:20:37.133Z,16.51
2022-10-28T23:23:06.162Z,16.53
2022-10-28T23:25:33.869Z,16.52
2022-10-28T23:28:01.677Z,16.52
2022-10-28T23:30:29.399Z,16.47
2022-10-28T23:32:58.374Z,16.36
2022-10-28T23:35:26.533Z,16.29
2022-10-28T23:37:54.447Z,16.23
2022-10-28T23:40:23.641Z,16.13
2022-10-28T23:42:51.420Z,15.95
2022-10-28T23:45:19.217Z,15.83
2022-10-28T23:47:47.418Z,15.72
2022-10-28T23:50:40.813Z,15.66
2022-10-28T23:53:08.757Z,15.62
2022-10-28T23:55:37.917Z,15.43
2022-10-28T23:58:06.015Z,15.20
